createdAt,value
2022-11-29T00:01:38.618Z,23.15
2022-11-29T00:04:05.883Z,20.83
2022-11-29T00:06:35.096Z,22.08
2022-11-29T00:09:07.011Z,18.42
2022-11-29T00:11:54.972Z,18.52
2022-11-29T00:14:23.945Z,21.67
2022-11-29T00:16:53.203Z,20.98
2022-11-29T00:19:20.984Z,19.02
2022-11-29T00:21:47.952Z,17.92
2022-11-29T00:24:15.287Z,20.08
2022-11-29T00:26:42.312Z,20.92
2022-11-29T00:29:12.272Z,22.83
2022-11-29T00:31:40.802Z,21.30
2022-11-29T00:34:08.312Z,23.63
2022-11-29T00:36:35.844Z,23.38
2022-11-29T00:39:04.960Z,21.98
2022-11-29T00:41:33.362Z,22.80
2022-11-29T00:44:00.742Z,23.20
2022-11-29T00:46:27.824Z,21.95
2022-11-29T00:48:54.769Z,24.50
2022-11-29T00:51:23.178Z,26.20
2022-11-29T00:53:50.733Z,26.23
2022-11-29T00:56:18.183Z,23.75
2022-11-29T00:58:45.335Z,24.77
2022-11-29T01:01:13.380Z,20.88
2022-11-29T01:03:41.035Z,21.98
2022-11-29T01:06:11.122Z,20.25
2022-11-29T01:08:39.028Z,23.83
2022-11-29T01:11:14.185Z,19.90
2022-11-29T01:13:42.008Z,21.83
2022-11-29T01:16:09.373Z,19.48
2022-11-29T01:18:37.408Z,24.35
2022-11-29T01:21:11.519Z,22.05
2022-11-29T01:23:39.374Z,18.67
2022-11-29T01:26:15.647Z,19.90
2022-11-29T01:28:45.159Z,20.38
2022-11-29T01:31:15.612Z,19.45
2022-11-29T01:33:42.752Z,19.63
2022-11-29T01:36:10.722Z,17.90
2022-11-29T01:38:37.720Z,20.73
2022-11-29T01:41:14.708Z,20.70
2022-11-29T01:44:13.728Z,21.38
2022-11-29T01:46:46.173Z,20.80
2022-11-29T01:49:20.759Z,21.25
2022-11-29T01:51:55.647Z,17.88
2022-11-29T01:54:23.110Z,22.65
2022-11-29T01:56:51.924Z,21.38
2022-11-29T01:59:29.988Z,23.75
2022-11-29T02:02:07.089Z,23.98
2022-11-29T02:04:36.406Z,23.20
2022-11-29T02:07:04.126Z,24.05
2022-11-29T02:09:31.252Z,26.35
2022-11-29T02:12:04.229Z,21.75
2022-11-29T02:14:52.548Z,25.67
2022-11-29T02:17:34.573Z,23.80
2022-11-29T02:20:23.200Z,22.75
2022-11-29T02:23:00.822Z,21.50
2022-11-29T02:25:52.829Z,28.33
2022-11-29T02:28:38.572Z,28.17
2022-11-29T02:31:24.323Z,23.80
2022-11-29T02:34:33.702Z,26.45
2022-11-29T02:37:14.253Z,22.77
2022-11-29T02:39:54.217Z,21.30
2022-11-29T02:42:55.771Z,25.00
2022-11-29T02:45:42.020Z,22.88
2022-11-29T02:48:36.747Z,23.00
2022-11-29T02:51:11.836Z,27.00
2022-11-29T02:53:51.195Z,25.87
2022-11-29T02:56:39.853Z,24.88
2022-11-29T02:59:44.608Z,24.98
2022-11-29T03:02:21.500Z,28.48
2022-11-29T03:04:54.380Z,26.58
2022-11-29T03:07:45.216Z,27.98
2022-11-29T03:10:20.721Z,27.98
2022-11-29T03:12:52.052Z,26.02
2022-11-29T03:15:39.945Z,26.25
2022-11-29T03:18:26.682Z,25.70
2022-11-29T03:21:18.356Z,28.08
2022-11-29T03:24:02.904Z,27.65
2022-11-29T03:26:49.496Z,25.35
2022-11-29T03:29:28.464Z,26.13
2022-11-29T03:32:17.615Z,28.85
2022-11-29T03:35:05.712Z,26.92
2022-11-29T03:38:11.332Z,24.88
2022-11-29T03:41:05.791Z,24.30
2022-11-29T03:43:51.700Z,25.05
2022-11-29T03:46:25.573Z,27.10
2022-11-29T03:48:59.957Z,25.73
2022-11-29T03:51:43.102Z,28.95
2022-11-29T03:54:16.080Z,31.42
2022-11-29T03:56:43.391Z,29.92
2022-11-29T03:59:33.222Z,29.42
2022-11-29T04:02:09.859Z,27.20
2022-11-29T04:05:03.586Z,27.88
2022-11-29T04:07:40.904Z,29.52
2022-11-29T04:10:30.769Z,24.08
2022-11-29T04:13:12.852Z,28.88
2022-11-29T04:15:45.854Z,28.42
2022-11-29T04:18:22.150Z,27.23
2022-11-29T04:20:52.237Z,24.48
2022-11-29T04:23:33.056Z,26.55
2022-11-29T04:26:20.674Z,28.63
2022-11-29T04:28:56.731Z,32.00
2022-11-29T04:31:33.947Z,30.50
2022-11-29T04:34:23.556Z,28.00
2022-11-29T04:37:14.835Z,26.48
2022-11-29T04:40:26.344Z,31.10
2022-11-29T04:43:12.162Z,32.28
2022-11-29T04:45:45.151Z,27.65
2022-11-29T04:48:37.525Z,26.05
2022-11-29T04:51:23.761Z,26.95
2022-11-29T04:54:40.262Z,28.48
2022-11-29T04:57:39.493Z,25.95
2022-11-29T05:00:10.130Z,25.27
2022-11-29T05:02:54.217Z,28.17
2022-11-29T05:05:44.705Z,25.48
2022-11-29T05:08:45.619Z,29.02
2022-11-29T05:11:27.549Z,24.70
2022-11-29T05:14:01.935Z,26.77
2022-11-29T05:16:53.805Z,26.52
2022-11-29T05:19:56.184Z,22.67
2022-11-29T05:22:31.708Z,31.20
2022-11-29T05:25:16.849Z,26.48
2022-11-29T05:27:58.628Z,29.55
2022-11-29T05:30:43.755Z,26.35
2022-11-29T05:33:36.042Z,31.08
2022-11-29T05:36:24.051Z,27.58
2022-11-29T05:39:19.168Z,29.20
2022-11-29T05:42:14.983Z,30.83
2022-11-29T05:44:49.068Z,23.90
2022-11-29T05:47:31.181Z,27.80
2022-11-29T05:50:10.743Z,27.88
2022-11-29T05:53:11.611Z,28.45
2022-11-29T05:56:01.734Z,26.58
2022-11-29T05:58:50.362Z,28.05
2022-11-29T06:01:25.013Z,28.27
2022-11-29T06:04:15.378Z,27.33
2022-11-29T06:07:04.501Z,30.00
2022-11-29T06:09:43.343Z,34.88
2022-11-29T06:12:20.889Z,26.83
2022-11-29T06:14:57.498Z,26.88
2022-11-29T06:17:56.092Z,25.08
2022-11-29T06:20:35.631Z,29.13
2022-11-29T06:23:05.803Z,33.25
2022-11-29T06:26:04.265Z,30.33
2022-11-29T06:28:55.901Z,30.63
2022-11-29T06:31:39.640Z,26.38
2022-11-29T06:34:09.985Z,28.60
2022-11-29T06:36:46.333Z,25.05
2022-11-29T06:39:14.006Z,28.13
2022-11-29T06:41:40.994Z,29.90
2022-11-29T06:44:08.808Z,29.00
2022-11-29T06:46:46.433Z,28.13
2022-11-29T06:49:23.520Z,27.15
2022-11-29T06:52:43.616Z,27.88
2022-11-29T06:55:23.114Z,32.55
2022-11-29T06:57:52.890Z,27.80
2022-11-29T07:00:27.119Z,26.85
2022-11-29T07:03:28.918Z,26.85
2022-11-29T07:05:57.400Z,32.05
2022-11-29T07:08:25.492Z,29.88
2022-11-29T07:10:55.632Z,28.20
2022-11-29T07:13:23.318Z,32.88
2022-11-29T07:16:08.855Z,31.48
2022-11-29T07:18:48.080Z,31.13
2022-11-29T07:21:27.243Z,28.48
2022-11-29T07:23:54.443Z,30.58
2022-11-29T07:26:39.362Z,34.05
2022-11-29T07:29:21.358Z,28.35
2022-11-29T07:31:59.899Z,28.65
2022-11-29T07:34:56.330Z,28.80
2022-11-29T07:37:41.409Z,29.95
2022-11-29T07:40:22.150Z,30.38
2022-11-29T07:43:23.634Z,30.05
2022-11-29T07:45:53.024Z,30.05
2022-11-29T07:48:23.001Z,26.05
2022-11-29T07:50:51.127Z,28.42
2022-11-29T07:53:20.771Z,30.50
2022-11-29T07:55:48.869Z,23.70
2022-11-29T07:58:17.502Z,27.70
2022-11-29T08:00:45.395Z,25.17
2022-11-29T08:03:12.908Z,25.65
2022-11-29T08:05:40.663Z,25.05
2022-11-29T08:08:07.864Z,29.30
2022-11-29T08:10:35.684Z,30.95
2022-11-29T08:13:03.184Z,29.17
2022-11-29T08:15:30.662Z,28.73
2022-11-29T08:17:57.619Z,28.75
2022-11-29T08:20:27.825Z,26.13
2022-11-29T08:23:03.435Z,24.85
2022-11-29T08:25:30.780Z,29.45
2022-11-29T08:27:57.937Z,31.88
2022-11-29T08:30:25.144Z,26.08
2022-11-29T08:32:52.863Z,25.50
2022-11-29T08:35:21.727Z,28.00
2022-11-29T08:37:49.466Z,28.77
2022-11-29T08:40:17.527Z,24.25
2022-11-29T08:42:44.753Z,27.27
2022-11-29T08:45:12.390Z,25.90
2022-11-29T08:47:41.949Z,28.73
2022-11-29T08:50:14.252Z,23.73
2022-11-29T08:53:03.819Z,25.63
2022-11-29T08:55:40.705Z,24.85
2022-11-29T08:58:10.958Z,23.65
2022-11-29T09:00:38.763Z,23.70
2022-11-29T09:03:26.393Z,25.17
2022-11-29T09:05:54.125Z,26.20
2022-11-29T09:08:21.379Z,23.75
2022-11-29T09:10:49.719Z,23.85
2022-11-29T09:13:18.220Z,24.48
2022-11-29T09:15:45.423Z,26.70
2022-11-29T09:18:13.165Z,26.52
2022-11-29T09:20:44.118Z,22.88
2022-11-29T09:23:12.073Z,26.58
2022-11-29T09:25:39.091Z,22.23
2022-11-29T09:28:06.218Z,23.80
2022-11-29T09:30:35.163Z,24.35
2022-11-29T09:33:04.473Z,26.70
2022-11-29T09:35:31.784Z,24.20
2022-11-29T09:37:59.207Z,23.48
2022-11-29T09:40:33.918Z,24.88
2022-11-29T09:43:22.513Z,21.45
2022-11-29T09:45:57.413Z,22.42
2022-11-29T09:48:57.579Z,26.17
2022-11-29T09:51:50.380Z,22.50
2022-11-29T09:54:32.383Z,19.10
2022-11-29T09:57:00.107Z,21.90
2022-11-29T09:59:42.952Z,22.48
2022-11-29T10:02:40.237Z,20.73
2022-11-29T10:05:14.197Z,22.48
2022-11-29T10:07:47.845Z,22.02
2022-11-29T10:10:32.646Z,23.52
2022-11-29T10:13:20.109Z,20.83
2022-11-29T10:15:51.916Z,16.33
2022-11-29T10:18:49.809Z,21.15
2022-11-29T10:21:21.857Z,22.80
2022-11-29T10:23:52.905Z,24.90
2022-11-29T10:26:22.512Z,22.50
2022-11-29T10:28:50.169Z,19.88
2022-11-29T10:31:32.829Z,19.08
2022-11-29T10:34:03.031Z,23.05
2022-11-29T10:36:44.552Z,22.95
2022-11-29T10:39:42.303Z,21.55
2022-11-29T10:42:47.586Z,22.77
2022-11-29T10:45:50.674Z,23.92
2022-11-29T10:48:20.606Z,23.02
2022-11-29T10:50:50.033Z,25.17
2022-11-29T10:53:20.279Z,21.38
2022-11-29T10:55:53.774Z,22.00
2022-11-29T10:58:28.210Z,24.95
2022-11-29T11:01:07.028Z,22.92
2022-11-29T11:03:44.117Z,26.33
2022-11-29T11:06:19.983Z,21.77
2022-11-29T11:08:56.205Z,21.00
2022-11-29T11:11:31.090Z,20.98
2022-11-29T11:14:23.234Z,23.00
2022-11-29T11:16:51.529Z,25.42
2022-11-29T11:19:33.644Z,26.20
2022-11-29T11:22:03.577Z,24.70
2022-11-29T11:24:38.555Z,21.88
2022-11-29T11:27:05.701Z,22.43
2022-11-29T11:29:38.625Z,21.63
2022-11-29T11:32:16.288Z,25.63
2022-11-29T11:34:59.221Z,22.98
2022-11-29T11:37:31.907Z,25.25
2022-11-29T11:40:26.068Z,25.27
2022-11-29T11:42:53.528Z,27.13
2022-11-29T11:45:27.621Z,28.67
2022-11-29T11:47:58.849Z,27.38
2022-11-29T11:50:35.083Z,26.35
2022-11-29T11:53:26.632Z,25.08
2022-11-29T11:56:12.778Z,22.98
2022-11-29T11:58:50.789Z,21.20
2022-11-29T12:01:38.238Z,21.15
2022-11-29T12:04:19.837Z,24.35
2022-11-29T12:06:50.013Z,21.50
2022-11-29T12:09:35.082Z,22.10
2022-11-29T12:12:17.795Z,22.77
2022-11-29T12:14:58.087Z,24.63
2022-11-29T12:17:34.981Z,28.40
2022-11-29T12:20:17.121Z,25.30
2022-11-29T12:23:19.561Z,25.00
2022-11-29T12:26:13.728Z,23.23
2022-11-29T12:28:47.040Z,25.30
2022-11-29T12:31:48.255Z,26.15
2022-11-29T12:34:52.771Z,26.67
2022-11-29T12:37:30.324Z,22.05
2022-11-29T12:40:05.125Z,22.88
2022-11-29T12:42:57.267Z,25.48
2022-11-29T12:45:33.506Z,26.08
2022-11-29T12:48:14.841Z,25.33
2022-11-29T12:51:10.851Z,23.75
2022-11-29T12:53:58.900Z,22.27
2022-11-29T12:57:11.419Z,26.38
2022-11-29T12:59:38.551Z,25.13
2022-11-29T13:02:21.364Z,23.20
2022-11-29T13:05:09.759Z,23.25
2022-11-29T13:07:58.806Z,26.17
2022-11-29T13:10:52.221Z,26.48
2022-11-29T13:13:22.063Z,23.02
2022-11-29T13:16:34.735Z,23.98
2022-11-29T13:19:23.183Z,27.15
2022-11-29T13:22:07.752Z,24.20
2022-11-29T13:24:46.285Z,26.08
2022-11-29T13:27:36.582Z,23.38
2022-11-29T13:30:05.659Z,24.05
2022-11-29T13:32:40.607Z,23.77
2022-11-29T13:35:35.243Z,26.47
2022-11-29T13:38:18.601Z,22.77
2022-11-29T13:40:48.893Z,26.50
2022-11-29T13:43:39.261Z,23.17
2022-11-29T13:46:28.236Z,22.48
2022-11-29T13:48:55.710Z,23.30
2022-11-29T13:51:34.685Z,22.38
2022-11-29T13:54:07.272Z,20.92
2022-11-29T13:56:46.339Z,22.73
2022-11-29T13:59:29.608Z,22.45
2022-11-29T14:01:58.758Z,21.65
2022-11-29T14:04:45.225Z,22.73
2022-11-29T14:07:19.630Z,21.30
2022-11-29T14:10:06.115Z,27.35
2022-11-29T14:15:32.034Z,22.67
2022-11-29T14:18:03.426Z,21.73
2022-11-29T14:20:44.169Z,24.17
2022-11-29T14:23:32.737Z,26.77
2022-11-29T14:26:01.075Z,23.30
2022-11-29T14:28:30.065Z,26.23
2022-11-29T14:31:36.237Z,25.63
2022-11-29T14:34:15.034Z,24.52
2022-11-29T14:37:01.774Z,23.20
2022-11-29T14:39:47.040Z,20.02
2022-11-29T14:42:19.958Z,23.13
2022-11-29T14:44:52.793Z,19.02
2022-11-29T14:47:25.381Z,22.08
2022-11-29T14:49:56.136Z,22.92
2022-11-29T14:52:31.096Z,24.42
2022-11-29T14:55:02.924Z,23.30
2022-11-29T14:57:48.412Z,24.00
2022-11-29T15:00:39.698Z,26.17
2022-11-29T15:03:21.444Z,24.70
2022-11-29T15:05:58.120Z,26.20
2022-11-29T15:08:54.887Z,23.60
2022-11-29T15:12:04.232Z,22.17
2022-11-29T15:15:04.165Z,23.58
2022-11-29T15:17:37.922Z,22.98
2022-11-29T15:20:40.330Z,25.45
2022-11-29T15:23:14.831Z,29.63
2022-11-29T15:25:53.727Z,29.35
2022-11-29T15:28:28.938Z,33.25
2022-11-29T15:31:11.226Z,30.13
2022-11-29T15:33:41.804Z,32.65
2022-11-29T15:36:19.376Z,32.90
2022-11-29T15:38:56.590Z,33.95
2022-11-29T15:41:32.246Z,29.00
2022-11-29T15:44:05.846Z,34.92
2022-11-29T15:46:36.058Z,35.35
2022-11-29T15:49:24.338Z,36.60
2022-11-29T15:52:02.822Z,33.15
2022-11-29T15:54:32.125Z,39.03
2022-11-29T15:57:42.632Z,34.33
2022-11-29T16:00:21.665Z,41.60
2022-11-29T16:02:58.030Z,34.92
2022-11-29T16:05:33.260Z,37.67
2022-11-29T16:08:21.288Z,37.38
2022-11-29T16:10:53.081Z,41.42
2022-11-29T16:13:31.264Z,33.25
2022-11-29T16:16:19.552Z,36.58
2022-11-29T16:18:48.399Z,36.38
2022-11-29T16:21:32.638Z,39.95
2022-11-29T16:24:19.502Z,36.78
2022-11-29T16:26:48.321Z,38.90
2022-11-29T16:29:33.991Z,40.60
2022-11-29T16:32:15.103Z,37.28
2022-11-29T16:34:43.984Z,34.90
2022-11-29T16:37:39.672Z,40.05
2022-11-29T16:40:19.365Z,36.97
2022-11-29T16:43:07.652Z,35.13
2022-11-29T16:45:41.288Z,37.10
2022-11-29T16:48:30.612Z,35.97
2022-11-29T16:51:10.235Z,34.38
2022-11-29T16:53:40.174Z,32.67
2022-11-29T16:56:15.543Z,33.17
2022-11-29T16:59:21.081Z,33.85
2022-11-29T17:01:34.797Z,33.72
2022-11-29T17:04:01.929Z,36.33
2022-11-29T17:06:30.049Z,30.27
2022-11-29T17:08:59.073Z,36.60
2022-11-29T17:11:27.161Z,28.35
2022-11-29T17:13:56.851Z,31.67
2022-11-29T17:16:25.145Z,32.50
2022-11-29T17:18:53.038Z,30.98
2022-11-29T17:21:27.670Z,33.95
2022-11-29T17:23:55.227Z,33.22
2022-11-29T17:26:22.834Z,33.58
2022-11-29T17:28:52.045Z,30.40
2022-11-29T17:31:21.688Z,34.17
2022-11-29T17:33:48.804Z,35.47
2022-11-29T17:36:18.328Z,34.88
2022-11-29T17:38:45.802Z,32.42
2022-11-29T17:41:23.516Z,40.47
2022-11-29T17:43:52.132Z,33.00
2022-11-29T17:46:26.053Z,36.67
2022-11-29T17:48:54.411Z,36.78
2022-11-29T17:51:50.567Z,37.53
2022-11-29T17:54:11.196Z,36.22
2022-11-29T17:56:38.326Z,38.33
2022-11-29T17:59:05.880Z,39.90
2022-11-29T18:01:34.920Z,36.00
2022-11-29T18:04:04.429Z,32.22
2022-11-29T18:06:36.227Z,30.73
2022-11-29T18:09:04.728Z,38.15
2022-11-29T18:11:42.975Z,30.35
2022-11-29T18:14:16.511Z,36.38
2022-11-29T18:16:45.638Z,28.05
2022-11-29T18:19:16.174Z,30.73
2022-11-29T18:21:44.752Z,31.88
2022-11-29T18:24:12.130Z,35.97
2022-11-29T18:26:39.682Z,35.40
2022-11-29T18:29:08.605Z,33.70
2022-11-29T18:31:38.562Z,34.72
2022-11-29T18:34:09.674Z,36.45
2022-11-29T18:36:45.285Z,35.13
2022-11-29T18:39:18.136Z,34.55
2022-11-29T18:41:48.349Z,40.05
2022-11-29T18:44:17.476Z,37.85
2022-11-29T18:46:45.439Z,38.22
2022-11-29T18:49:16.055Z,39.88
2022-11-29T18:51:45.047Z,34.88
2022-11-29T18:54:14.148Z,39.28
2022-11-29T18:56:43.541Z,37.83
2022-11-29T18:59:17.328Z,39.35
2022-11-29T19:01:48.440Z,40.30
2022-11-29T19:04:20.914Z,34.53
2022-11-29T19:06:49.001Z,42.40
2022-11-29T19:09:22.397Z,39.72
2022-11-29T19:11:50.138Z,38.00
2022-11-29T19:14:19.171Z,36.78
2022-11-29T19:16:48.741Z,36.90
2022-11-29T19:19:16.011Z,40.28
2022-11-29T19:21:43.249Z,39.28
2022-11-29T19:24:15.940Z,36.40
2022-11-29T19:26:45.471Z,40.75
2022-11-29T19:29:13.972Z,39.28
2022-11-29T19:31:41.729Z,34.10
2022-11-29T19:34:09.119Z,38.95
2022-11-29T19:36:42.971Z,37.63
2022-11-29T19:39:13.003Z,40.63
2022-11-29T19:41:43.134Z,38.42
2022-11-29T19:44:10.786Z,41.08
2022-11-29T19:46:43.999Z,44.83
2022-11-29T19:49:11.679Z,36.58
2022-11-29T19:51:39.735Z,42.28
2022-11-29T19:54:09.653Z,36.63
2022-11-29T19:56:38.219Z,36.78
2022-11-29T19:59:07.652Z,37.08
2022-11-29T20:01:40.943Z,37.65
2022-11-29T20:04:10.393Z,43.25
2022-11-29T20:06:37.770Z,37.50
2022-11-29T20:09:04.977Z,38.10
2022-11-29T20:11:33.136Z,42.42
2022-11-29T20:14:01.828Z,38.47
2022-11-29T20:16:30.778Z,38.80
2022-11-29T20:18:59.506Z,41.85
2022-11-29T20:21:32.670Z,42.83
2022-11-29T20:24:03.041Z,40.55
2022-11-29T20:26:33.041Z,43.78
2022-11-29T20:29:01.826Z,38.70
2022-11-29T20:31:29.570Z,41.55
2022-11-29T20:34:00.327Z,36.80
2022-11-29T20:36:33.781Z,39.42
2022-11-29T20:39:28.747Z,38.83
2022-11-29T20:42:32.549Z,38.90
2022-11-29T20:45:02.623Z,41.22
2022-11-29T20:48:05.839Z,39.28
2022-11-29T20:50:33.156Z,38.60
2022-11-29T20:53:06.476Z,37.88
2022-11-29T20:55:33.719Z,36.70
2022-11-29T20:58:00.721Z,40.33
2022-11-29T21:00:27.855Z,39.55
2022-11-29T21:02:55.056Z,44.33
2022-11-29T21:05:22.196Z,38.70
2022-11-29T21:07:49.295Z,36.40
2022-11-29T21:10:16.570Z,37.15
2022-11-29T21:12:45.771Z,38.95
2022-11-29T21:15:14.280Z,32.75
2022-11-29T21:17:42.458Z,38.53
2022-11-29T21:20:18.133Z,34.95
2022-11-29T21:23:11.572Z,32.40
2022-11-29T21:26:02.504Z,36.83
2022-11-29T21:28:35.913Z,34.53
2022-11-29T21:31:03.513Z,34.33
2022-11-29T21:33:30.836Z,36.95
2022-11-29T21:35:58.931Z,35.75
2022-11-29T21:38:28.828Z,36.25
2022-11-29T21:40:57.565Z,37.17
2022-11-29T21:43:50.237Z,29.50
2022-11-29T21:46:12.968Z,32.40
2022-11-29T21:48:42.397Z,33.67
2022-11-29T21:51:10.958Z,33.97
2022-11-29T21:53:39.633Z,36.63
2022-11-29T21:56:09.446Z,32.70
2022-11-29T21:58:39.354Z,31.33
2022-11-29T22:01:16.089Z,30.25
2022-11-29T22:03:43.647Z,32.88
2022-11-29T22:06:20.385Z,31.05
2022-11-29T22:08:48.752Z,33.30
2022-11-29T22:11:31.122Z,28.23
2022-11-29T22:14:15.902Z,28.73
2022-11-29T22:16:51.846Z,29.10
2022-11-29T22:21:52.674Z,30.33
2022-11-29T22:24:22.437Z,29.50
2022-11-29T22:26:51.478Z,32.78
2022-11-29T22:29:18.991Z,30.67
2022-11-29T22:31:47.741Z,35.08
2022-11-29T22:34:14.874Z,34.75
2022-11-29T22:36:41.985Z,32.08
2022-11-29T22:39:09.848Z,32.45
2022-11-29T22:41:38.204Z,30.08
2022-11-29T22:44:06.035Z,28.30
2022-11-29T22:46:35.521Z,30.92
2022-11-29T22:49:03.303Z,25.35
2022-11-29T22:51:32.545Z,29.35
2022-11-29T22:54:02.424Z,28.20
2022-11-29T22:56:35.268Z,27.50
2022-11-29T22:59:02.534Z,28.65
2022-11-29T23:01:31.444Z,29.98
2022-11-29T23:04:00.635Z,34.50
2022-11-29T23:06:33.810Z,33.65
2022-11-29T23:09:12.017Z,29.48
2022-11-29T23:11:39.675Z,27.45
2022-11-29T23:14:06.853Z,26.80
2022-11-29T23:16:34.784Z,28.77
2022-11-29T23:19:02.611Z,29.13
2022-11-29T23:21:32.301Z,27.58
2022-11-29T23:24:02.717Z,31.58
2022-11-29T23:26:36.454Z,28.52
2022-11-29T23:29:05.796Z,29.92
2022-11-29T23:31:34.055Z,28.63
2022-11-29T23:34:02.459Z,28.17
2022-11-29T23:36:29.791Z,26.60
2022-11-29T23:38:56.973Z,30.08
2022-11-29T23:41:24.065Z,26.92
2022-11-29T23:43:50.994Z,27.77
2022-11-29T23:46:22.077Z,27.52
2022-11-29T23:48:49.833Z,26.98
2022-11-29T23:51:17.396Z,28.90
2022-11-29T23:53:44.950Z,27.50
2022-11-29T23:56:16.715Z,29.77
2022-11-29T23:58:44.609Z,29.15
